Time;durP1;ratioP1;P1;durP2;ratioP2;P2;SDS_P1;SDS_P2;PMS_P1;PMS_P2;Temp;Humidity;BMP_temperature;BMP_pressure;BME280_temperature;BME280_humidity;BME280_pressure;Samples;Min_cycle;Max_cycle;Signal;HPM_P1;HPM_P2
2022/03/02 00:02:00;;;;;;;24.07;17.17;;;;;;;4.49;68.29;102437.00;5175790;28;20871;-74
2022/03/02 00:04:32;;;;;;;22.87;17.77;;;;;;;4.52;69.77;102431.97;5193087;28;20033;-75
2022/03/02 00:07:03;;;;;;;29.30;19.63;;;;;;;4.43;69.49;102429.91;5193144;28;20102;-73
2022/03/02 00:09:35;;;;;;;25.23;17.83;;;;;;;4.38;69.17;102427.16;5192924;28;20034;-74
2022/03/02 00:12:06;;;;;;;24.07;17.67;;;;;;;4.38;69.15;102434.91;5193426;28;20033;-75
2022/03/02 00:14:38;;;;;;;31.40;19.17;;;;;;;4.31;69.49;102432.88;5192795;28;20022;-75
2022/03/02 00:17:10;;;;;;;26.23;18.17;;;;;;;4.26;68.74;102434.41;5193112;28;20034;-76
2022/03/02 00:19:42;;;;;;;26.93;19.00;;;;;;;4.22;69.09;102435.13;5194006;28;20066;-76
2022/03/02 00:22:13;;;;;;;27.93;18.27;;;;;;;4.20;69.05;102437.66;5196995;28;20037;-73
2022/03/02 00:24:50;;;;;;;29.07;18.77;;;;;;;4.11;69.38;102438.97;5193671;28;20041;-75
2022/03/02 00:27:23;;;;;;;26.88;18.55;;;;;;;4.03;69.99;102435.22;5176602;28;20166;-72
2022/03/02 00:29:54;;;;;;;29.80;20.27;;;;;;;3.97;70.11;102439.28;5176376;28;20066;-76
2022/03/02 00:32:26;;;;;;;27.20;18.23;;;;;;;3.90;69.85;102438.97;5175895;28;20067;-76
2022/03/02 00:34:57;;;;;;;31.63;20.00;;;;;;;3.86;69.90;102427.63;5176161;28;20555;-73
2022/03/02 00:37:28;;;;;;;25.60;19.17;;;;;;;3.79;71.02;102436.81;5176696;28;20061;-74
2022/03/02 00:40:00;;;;;;;27.80;20.10;;;;;;;3.72;71.43;102437.41;5176112;28;20058;-74
2022/03/02 00:42:32;;;;;;;33.13;20.43;;;;;;;3.60;70.90;102440.31;5180842;28;20897;-77
2022/03/02 00:45:04;;;;;;;29.52;20.60;;;;;;;3.60;72.36;102436.88;5184534;28;20034;-74
2022/03/02 00:47:36;;;;;;;28.10;20.27;;;;;;;3.49;71.87;102433.81;5179371;28;20037;-73
2022/03/02 00:50:08;;;;;;;34.83;21.23;;;;;;;3.41;71.68;102425.78;5176323;28;20467;-74
2022/03/02 00:52:40;;;;;;;29.63;19.95;;;;;;;3.50;72.34;102433.03;5175952;28;20574;-73
2022/03/02 00:55:12;;;;;;;26.13;18.40;;;;;;;3.42;71.23;102429.25;5175340;28;20118;-73
2022/03/02 00:57:44;;;;;;;31.00;19.73;;;;;;;3.44;72.33;102430.19;5175629;28;20038;-73
2022/03/02 01:00:16;;;;;;;28.75;20.70;;;;;;;3.42;71.85;102431.81;5176132;28;20041;-75
2022/03/02 01:02:48;;;;;;;30.75;18.60;;;;;;;3.43;72.27;102426.72;5174945;28;20031;-72
2022/03/02 01:05:19;;;;;;;27.23;18.83;;;;;;;3.38;71.60;102423.06;5175380;28;20034;-73
2022/03/02 01:07:51;;;;;;;28.83;19.63;;;;;;;3.39;71.95;102417.09;5175859;28;20082;-73
2022/03/02 01:10:23;;;;;;;30.30;20.47;;;;;;;3.39;72.08;102418.78;5175643;28;20030;-74
2022/03/02 01:12:54;;;;;;;26.60;19.47;;;;;;;3.33;72.40;102411.66;5158063;28;20027;-72
2022/03/02 01:15:26;;;;;;;27.87;20.00;;;;;;;3.34;72.64;102410.84;5175609;28;20466;-74
2022/03/02 01:17:57;;;;;;;28.77;20.33;;;;;;;3.27;72.34;102416.56;5175603;28;20427;-75
2022/03/02 01:20:29;;;;;;;25.53;18.83;;;;;;;3.22;72.44;102408.63;5175206;28;20094;-74
2022/03/02 01:23:00;;;;;;;28.20;18.97;;;;;;;3.17;72.78;102398.94;5175581;28;20033;-74
2022/03/02 01:25:31;;;;;;;26.60;19.97;;;;;;;3.17;73.29;102397.25;5184171;28;20047;-73
2022/03/02 01:28:03;;;;;;;29.73;18.97;;;;;;;2.98;71.12;102399.81;5195466;28;20026;-74
2022/03/02 01:30:34;;;;;;;26.33;19.40;;;;;;;3.04;71.68;102397.50;5195051;28;20049;-74
2022/03/02 01:33:06;;;;;;;27.33;18.77;;;;;;;3.01;71.54;102397.38;5195342;28;20433;-73
2022/03/02 01:35:37;;;;;;;27.87;19.23;;;;;;;3.00;71.40;102390.47;5195044;28;20026;-74
2022/03/02 01:38:09;;;;;;;31.60;19.67;;;;;;;2.94;70.97;102383.34;5195125;28;20037;-72
2022/03/02 01:40:40;;;;;;;27.50;18.93;;;;;;;2.89;70.81;102396.00;5194810;28;20022;-74
2022/03/02 01:43:13;;;;;;;32.57;20.33;;;;;;;2.82;70.33;102385.38;5195314;28;20032;-72
2022/03/02 01:45:44;;;;;;;25.75;18.63;;;;;;;2.87;71.67;102389.06;5195058;28;20441;-74
2022/03/02 01:48:16;;;;;;;26.13;18.47;;;;;;;2.83;71.50;102387.13;5195427;28;20053;-76
2022/03/02 01:50:47;;;;;;;28.93;19.57;;;;;;;2.79;71.07;102385.25;5194408;28;20038;-74
2022/03/02 01:53:19;;;;;;;26.17;18.37;;;;;;;2.77;72.03;102382.63;5195175;28;20022;-74
2022/03/02 01:55:50;;;;;;;23.80;17.97;;;;;;;2.78;71.58;102379.19;5195025;28;20061;-73
2022/03/02 01:58:23;;;;;;;28.03;19.70;;;;;;;2.77;71.59;102376.56;5195185;28;20058;-76
2022/03/02 02:00:56;;;;;;;26.23;17.73;;;;;;;2.75;71.72;102379.06;5194592;28;20046;-73
2022/03/02 02:03:28;;;;;;;28.23;18.20;;;;;;;2.68;70.81;102377.91;5195046;28;20437;-74
2022/03/02 02:06:00;;;;;;;31.07;19.27;;;;;;;2.74;72.17;102369.59;5194201;28;20034;-75
2022/03/02 02:08:32;;;;;;;26.02;18.45;;;;;;;2.65;70.47;102376.91;5194905;28;20061;-74
2022/03/02 02:11:03;;;;;;;27.70;18.17;;;;;;;2.61;70.41;102377.56;5160861;28;20078;-74
2022/03/02 02:13:35;;;;;;;26.13;18.00;;;;;;;2.56;69.69;102369.66;5195712;28;20026;-74
2022/03/02 02:16:08;;;;;;;26.53;18.50;;;;;;;2.65;71.20;102367.47;5195781;28;20478;-74
2022/03/02 02:18:40;;;;;;;;;;;;;;;2.64;70.34;102363.16;5197038;28;20429;-76
2022/03/02 02:21:11;;;;;;;31.98;19.20;;;;;;;2.61;70.30;102357.88;5194378;28;19976;-72
2022/03/02 02:23:42;;;;;;;25.83;18.53;;;;;;;2.60;70.85;102357.78;5195468;28;20098;-74
2022/03/02 02:26:14;;;;;;;28.97;20.30;;;;;;;2.60;70.71;102357.78;5196234;28;20568;-75
2022/03/02 02:28:45;;;;;;;26.77;18.70;;;;;;;2.59;71.35;102361.16;5194509;28;20537;-73
2022/03/02 02:31:17;;;;;;;32.30;18.43;;;;;;;2.59;70.68;102361.16;5194000;28;20080;-74
2022/03/02 02:33:49;;;;;;;25.70;17.63;;;;;;;2.61;71.14;102357.88;5193654;28;20058;-74
2022/03/02 02:36:20;;;;;;;24.83;17.27;;;;;;;2.57;70.21;102360.22;5193166;28;20029;-74
2022/03/02 02:38:54;;;;;;;26.73;17.60;;;;;;;2.66;71.00;102352.94;5193802;28;20035;-74
2022/03/02 02:41:25;;;;;;;24.67;17.90;;;;;;;2.71;71.18;102354.00;5193603;28;20022;-73
2022/03/02 02:43:56;;;;;;;27.23;17.80;;;;;;;2.64;69.91;102354.53;5192756;28;20038;-74
2022/03/02 02:46:28;;;;;;;29.23;18.00;;;;;;;2.65;69.75;102351.16;5193991;28;20033;-74
2022/03/02 02:48:59;;;;;;;26.30;17.90;;;;;;;2.64;69.83;102339.97;5193315;28;20037;-74
2022/03/02 02:51:30;;;;;;;27.73;17.73;;;;;;;2.67;70.54;102344.38;5193869;28;20053;-73
2022/03/02 02:54:02;;;;;;;26.70;17.87;;;;;;;2.69;70.87;102343.63;5194065;28;20038;-75
2022/03/02 02:56:34;;;;;;;30.17;18.45;;;;;;;2.66;70.77;102343.50;5197665;28;20481;-74
2022/03/02 02:59:05;;;;;;;28.30;18.67;;;;;;;2.73;71.73;102342.94;5193865;28;20178;-73
2022/03/02 03:01:37;;;;;;;25.37;18.47;;;;;;;2.68;70.76;102351.28;5193311;28;20104;-74
2022/03/02 03:04:09;;;;;;;26.70;17.63;;;;;;;2.67;70.35;102349.53;5193570;28;20042;-73
2022/03/02 03:06:40;;;;;;;23.65;17.08;;;;;;;2.68;70.61;102346.13;5193049;28;20045;-75
2022/03/02 03:09:12;;;;;;;24.67;15.90;;;;;;;2.67;69.52;102341.78;5194041;28;20030;-75
2022/03/02 03:11:44;;;;;;;23.67;17.43;;;;;;;2.68;70.16;102346.13;5193615;28;20038;-74
2022/03/02 03:14:16;;;;;;;25.55;17.58;;;;;;;2.61;69.81;102341.50;5194346;28;20105;-74
2022/03/02 03:16:47;;;;;;;26.13;17.10;;;;;;;2.57;69.05;102343.06;5193818;28;20160;-74
2022/03/02 03:19:18;;;;;;;22.07;16.67;;;;;;;2.62;70.55;102341.59;5193986;28;20031;-73
2022/03/02 03:21:49;;;;;;;26.40;16.07;;;;;;;2.59;69.64;102338.88;5193233;28;20553;-76
2022/03/02 03:24:21;;;;;;;25.53;16.60;;;;;;;2.57;68.96;102331.91;5193444;28;20030;-74
2022/03/02 03:26:53;;;;;;;23.50;17.10;;;;;;;2.55;69.01;102335.28;5193205;28;20046;-74
2022/03/02 03:29:24;;;;;;;25.13;17.17;;;;;;;2.57;70.23;102331.91;5193826;28;20113;-74
2022/03/02 03:31:55;;;;;;;24.80;16.50;;;;;;;2.55;69.31;102335.28;5193417;28;20485;-74
2022/03/02 03:34:27;;;;;;;26.87;17.23;;;;;;;2.49;68.49;102329.84;5193607;28;20022;-76
2022/03/02 03:36:58;;;;;;;27.47;17.73;;;;;;;2.55;69.68;102340.44;5193286;28;20436;-73
2022/03/02 03:39:29;;;;;;;26.40;16.47;;;;;;;2.54;68.47;102340.34;5193455;28;20057;-74
2022/03/02 03:42:01;;;;;;;24.93;17.77;;;;;;;2.53;69.23;102336.03;5193613;28;20030;-74
2022/03/02 03:44:32;;;;;;;25.50;16.07;;;;;;;2.47;68.06;102336.63;5193711;28;20030;-73
2022/03/02 03:47:04;;;;;;;24.17;16.70;;;;;;;2.50;68.43;102329.06;5192887;28;20030;-74
2022/03/02 03:49:36;;;;;;;24.42;16.75;;;;;;;2.48;67.30;102327.22;5193601;28;20018;-74
2022/03/02 03:52:08;;;;;;;24.33;17.67;;;;;;;2.49;67.61;102327.28;5175685;28;20033;-73
2022/03/02 03:54:40;;;;;;;24.45;16.60;;;;;;;2.45;67.85;102332.25;5194516;28;20054;-76
2022/03/02 03:57:11;;;;;;;24.90;16.80;;;;;;;2.49;68.25;102329.84;5179859;28;20141;-77
2022/03/02 03:59:43;;;;;;;23.63;15.83;;;;;;;2.50;68.60;102326.47;5197018;28;20038;-74
2022/03/02 04:02:14;;;;;;;23.80;15.63;;;;;;;2.50;67.90;102328.19;5196786;28;20042;-75
2022/03/02 04:04:46;;;;;;;24.07;16.37;;;;;;;2.48;69.78;102317.81;5197508;28;20030;-74
2022/03/02 04:07:17;;;;;;;23.23;15.57;;;;;;;2.45;67.37;102321.94;5197136;28;20034;-74
2022/03/02 04:09:49;;;;;;;24.40;16.43;;;;;;;2.44;67.70;102317.59;5179553;28;20038;-75
2022/03/02 04:12:20;;;;;;;27.17;16.17;;;;;;;2.41;67.67;102318.34;5196639;28;20066;-74
2022/03/02 04:14:51;;;;;;;21.93;15.20;;;;;;;2.37;67.91;102314.75;5197092;28;20033;-75
2022/03/02 04:17:23;;;;;;;24.17;16.53;;;;;;;2.33;67.35;102307.69;5196427;28;20061;-74
2022/03/02 04:19:55;;;;;;;22.57;15.07;;;;;;;2.39;69.09;102311.38;5197298;28;20031;-75
2022/03/02 04:22:26;;;;;;;24.47;15.47;;;;;;;2.27;68.12;102302.28;5196767;28;20046;-76
2022/03/02 04:24:58;;;;;;;23.20;15.53;;;;;;;2.28;67.29;102303.16;5178657;28;20101;-74
2022/03/02 04:27:29;;;;;;;22.97;15.43;;;;;;;2.23;67.54;102304.66;5196571;28;20034;-75
2022/03/02 04:30:01;;;;;;;22.50;15.13;;;;;;;2.16;67.36;102298.34;5196416;28;20039;-75
2022/03/02 04:32:33;;;;;;;27.20;15.77;;;;;;;2.15;68.21;102289.72;5196283;28;20038;-74
2022/03/02 04:35:06;;;;;;;24.00;15.60;;;;;;;2.13;68.12;102290.47;5196453;28;20029;-74
2022/03/02 04:37:39;;;;;;;24.08;15.80;;;;;;;2.12;69.20;102289.56;5196639;28;20050;-73
2022/03/02 04:40:12;;;;;;;24.05;15.95;;;;;;;2.05;68.73;102289.25;5178761;28;20514;-74
2022/03/02 04:42:44;;;;;;;23.52;16.00;;;;;;;2.00;67.65;102282.19;5196541;28;20390;-75
2022/03/02 04:45:16;;;;;;;23.17;16.30;;;;;;;2.04;68.67;102293.50;5196462;28;20041;-76
2022/03/02 04:47:47;;;;;;;23.42;15.13;;;;;;;1.99;67.89;102285.56;5195505;28;20030;-74
2022/03/02 04:50:19;;;;;;;21.93;15.53;;;;;;;1.98;66.86;102288.06;5196738;28;20167;-74
2022/03/02 04:52:52;;;;;;;24.50;14.87;;;;;;;2.02;67.82;102286.53;5196063;28;20062;-74
2022/03/02 04:55:23;;;;;;;25.02;15.93;;;;;;;1.92;67.64;102282.66;5197191;28;20046;-75
2022/03/02 04:57:59;;;;;;;25.87;16.97;;;;;;;1.98;69.08;102275.19;5197960;28;20030;-73
2022/03/02 05:00:34;;;;;;;25.50;15.85;;;;;;;2.00;69.59;102276.16;5209502;28;20026;-73
2022/03/02 05:03:06;;;;;;;22.20;15.02;;;;;;;1.95;68.13;102270.81;5199449;28;20828;-74
2022/03/02 05:05:38;;;;;;;24.20;15.02;;;;;;;1.91;67.75;102274.03;5195820;28;20026;-74
2022/03/02 05:08:11;;;;;;;24.13;14.95;;;;;;;1.93;68.51;102275.00;5195775;28;20041;-75
2022/03/02 05:10:43;;;;;;;20.73;14.55;;;;;;;1.94;68.86;102273.31;5196035;28;20034;-75
2022/03/02 05:13:14;;;;;;;22.50;15.57;;;;;;;1.96;70.26;102274.25;5195610;28;20036;-76
2022/03/02 05:15:45;;;;;;;23.60;16.37;;;;;;;1.88;69.41;102270.44;5196085;28;20359;-74
2022/03/02 05:18:17;;;;;;;25.20;15.23;;;;;;;1.81;68.35;102269.28;5195536;28;20058;-75
2022/03/02 05:20:48;;;;;;;23.27;15.43;;;;;;;1.89;70.67;102272.22;5196129;28;20023;-74
2022/03/02 05:23:19;;;;;;;23.03;14.73;;;;;;;1.83;69.24;102272.78;5177839;28;20145;-73
2022/03/02 05:25:51;;;;;;;21.37;13.93;;;;;;;1.78;67.43;102274.28;5195038;28;20533;-73
2022/03/02 05:28:22;;;;;;;19.97;13.33;;;;;;;1.76;67.19;102271.63;5196266;28;20354;-74
2022/03/02 05:30:53;;;;;;;23.17;15.80;;;;;;;1.77;67.47;102273.41;5195793;28;20110;-73
2022/03/02 05:33:25;;;;;;;23.93;14.60;;;;;;;1.76;67.12;102268.19;5196261;28;20033;-75
2022/03/02 05:35:56;;;;;;;26.33;15.60;;;;;;;1.71;67.93;102265.41;5195739;28;20027;-74
2022/03/02 05:38:29;;;;;;;22.67;13.73;;;;;;;1.74;67.01;102260.41;5195964;28;20113;-73
2022/03/02 05:41:00;;;;;;;27.55;14.93;;;;;;;1.77;66.38;102255.41;5195022;28;20026;-74
2022/03/02 05:43:31;;;;;;;19.90;13.93;;;;;;;1.78;67.29;102259.72;5195360;28;20034;-73
2022/03/02 05:46:03;;;;;;;27.13;14.83;;;;;;;1.78;66.36;102264.88;5195323;28;20117;-73
2022/03/02 05:48:34;;;;;;;22.33;14.10;;;;;;;1.81;65.73;102257.28;5195206;28;20065;-73
2022/03/02 05:51:06;;;;;;;21.40;13.97;;;;;;;1.83;66.50;102254.78;5195281;28;20057;-75
2022/03/02 05:53:37;;;;;;;20.10;14.50;;;;;;;1.85;66.22;102257.44;5195298;28;20031;-75
2022/03/02 05:56:08;;;;;;;21.70;13.30;;;;;;;1.84;66.12;102261.72;5195088;28;20484;-75
2022/03/02 05:58:40;;;;;;;20.37;13.43;;;;;;;1.81;65.81;102259.88;5194973;28;20038;-75
2022/03/02 06:01:11;;;;;;;22.03;13.40;;;;;;;1.80;65.74;102254.66;5194826;28;20041;-73
2022/03/02 06:03:43;;;;;;;24.97;13.77;;;;;;;1.82;65.89;102259.06;5195311;28;20040;-73
2022/03/02 06:06:15;;;;;;;19.93;13.63;;;;;;;1.82;65.56;102260.78;5194848;28;20030;-74
2022/03/02 06:08:46;;;;;;;23.52;14.82;;;;;;;1.82;64.77;102260.78;5195026;28;20030;-73
2022/03/02 06:11:18;;;;;;;21.63;13.63;;;;;;;1.80;64.85;102263.28;5194813;28;20098;-74
2022/03/02 06:13:50;;;;;;;22.77;13.60;;;;;;;1.75;64.96;102264.72;5194603;28;20025;-74
2022/03/02 06:16:22;;;;;;;20.92;13.40;;;;;;;1.79;66.55;102258.06;5195151;28;20022;-73
2022/03/02 06:18:53;;;;;;;24.33;14.50;;;;;;;1.73;65.58;102261.19;5194813;28;20501;-74
2022/03/02 06:21:29;;;;;;;21.03;13.27;;;;;;;1.75;66.41;102262.16;5194548;28;20285;-73
2022/03/02 06:24:01;;;;;;;24.55;13.85;;;;;;;1.75;67.70;102269.84;5194617;28;20430;-73
2022/03/02 06:26:33;;;;;;;26.20;13.13;;;;;;;1.73;65.41;102268.91;5194219;28;20117;-74
2022/03/02 06:29:04;;;;;;;20.83;13.47;;;;;;;1.75;66.03;102263.84;5194632;28;20401;-73
2022/03/02 06:31:36;;;;;;;19.93;13.47;;;;;;;1.74;65.45;102260.41;5194421;28;20041;-72
2022/03/02 06:34:07;;;;;;;20.50;12.90;;;;;;;1.70;64.42;102267.91;5194367;28;20486;-74
2022/03/02 06:36:38;;;;;;;20.50;12.07;;;;;;;1.72;64.18;102268.84;5194276;28;20030;-73
2022/03/02 06:39:11;;;;;;;19.93;12.07;;;;;;;1.71;63.55;102273.09;5194109;28;20390;-74
2022/03/02 06:42:03;;;;;;;19.10;13.57;;;;;;;1.75;62.92;102271.56;5194549;28;20430;-72
2022/03/02 06:44:55;;;;;;;19.65;13.65;;;;;;;1.76;64.18;102270.75;5194360;28;20457;-73
2022/03/02 06:47:35;;;;;;;18.77;11.98;;;;;;;1.74;64.34;102278.41;5193909;28;20097;-73
2022/03/02 06:50:12;;;;;;;18.92;13.02;;;;;;;1.69;65.05;102284.13;5193956;28;20029;-73
2022/03/02 06:52:44;;;;;;;19.08;12.65;;;;;;;1.73;64.31;102283.47;5194313;28;20038;-76
2022/03/02 06:55:17;;;;;;;;;;;;;;;1.74;64.77;102278.41;5194437;28;20038;-74
2022/03/02 06:57:56;;;;;;;20.10;11.88;;;;;;;1.74;64.19;102288.69;5194132;28;19921;-74
2022/03/02 07:00:30;;;;;;;21.00;12.57;;;;;;;1.74;64.93;102287.78;5193871;28;20089;-75
2022/03/02 07:03:09;;;;;;;21.85;12.85;;;;;;;1.78;65.32;102279.41;5193674;28;20026;-73
2022/03/02 07:05:41;;;;;;;22.25;12.30;;;;;;;1.79;64.15;102284.63;5194047;28;20019;-74
2022/03/02 07:08:15;;;;;;;19.58;12.75;;;;;;;1.90;63.59;102289.38;5193921;28;20031;-73
2022/03/02 07:10:50;;;;;;;23.75;13.25;;;;;;;1.88;62.70;102284.16;5193609;28;20443;-73
2022/03/02 07:13:22;;;;;;;20.98;12.98;;;;;;;1.95;64.26;102285.38;5193635;28;20397;-73
2022/03/02 07:15:53;;;;;;;20.63;13.40;;;;;;;1.97;63.87;102287.19;5193824;28;20031;-75
2022/03/02 07:18:24;;;;;;;21.73;13.07;;;;;;;2.01;64.03;102283.06;5193664;28;20170;-73
2022/03/02 07:20:57;;;;;;;20.57;12.53;;;;;;;2.08;63.14;102286.81;5194158;28;20040;-74
2022/03/02 07:23:34;;;;;;;22.02;13.38;;;;;;;2.14;64.11;102294.78;5193622;28;20041;-73
2022/03/02 07:26:08;;;;;;;17.85;13.00;;;;;;;2.18;64.44;102292.44;5193422;28;20116;-74
2022/03/02 07:28:39;;;;;;;24.38;14.10;;;;;;;2.27;62.46;102296.22;5175526;28;20041;-72
2022/03/02 07:31:11;;;;;;;17.73;12.10;;;;;;;2.35;62.39;102294.88;5193647;28;20030;-73
2022/03/02 07:33:45;;;;;;;20.97;12.33;;;;;;;2.41;62.10;102295.16;5193291;28;20099;-74
2022/03/02 07:36:19;;;;;;;24.83;12.77;;;;;;;2.51;63.04;102302.50;5193142;28;20022;-73
2022/03/02 07:38:51;;;;;;;21.00;13.23;;;;;;;2.57;60.80;102290.72;5176476;28;20498;-74
2022/03/02 07:41:22;;;;;;;17.95;12.82;;;;;;;2.68;60.92;102292.06;5193441;28;20061;-74
2022/03/02 07:43:54;;;;;;;20.23;13.17;;;;;;;2.73;60.82;102288.88;5193572;28;20037;-75
2022/03/02 07:46:28;;;;;;;20.27;12.87;;;;;;;2.85;59.64;102292.78;5193571;28;20378;-76
2022/03/02 07:49:01;;;;;;;17.92;11.93;;;;;;;2.89;59.44;102285.25;5194085;28;20033;-74
2022/03/02 07:51:35;;;;;;;18.10;12.48;;;;;;;2.97;60.48;102288.16;5193858;28;20302;-73
2022/03/02 07:54:07;;;;;;;19.65;12.35;;;;;;;3.03;58.97;102274.69;5194627;28;20120;-73
2022/03/02 07:56:40;;;;;;;19.30;12.63;;;;;;;3.13;58.64;102271.66;5208536;28;20026;-73
2022/03/02 07:59:12;;;;;;;22.23;12.93;;;;;;;3.25;58.39;102273.84;5186882;28;20057;-72
2022/03/02 08:01:44;;;;;;;22.40;12.60;;;;;;;3.35;56.70;102268.28;5195370;28;20034;-73
2022/03/02 08:04:15;;;;;;;21.83;12.30;;;;;;;3.49;55.74;102275.69;5194355;28;20037;-73
2022/03/02 08:06:47;;;;;;;19.10;12.77;;;;;;;3.67;55.25;102271.28;5193565;28;20036;-75
2022/03/02 08:09:19;;;;;;;19.13;12.03;;;;;;;3.86;55.69;102266.81;5194015;28;20500;-73
2022/03/02 08:11:50;;;;;;;21.87;11.90;;;;;;;4.04;54.76;102269.22;5193590;28;20034;-73
2022/03/02 08:14:24;;;;;;;20.97;11.77;;;;;;;4.14;53.35;102271.34;5193893;28;20125;-74
2022/03/02 08:16:55;;;;;;;22.00;12.25;;;;;;;4.30;53.84;102272.75;5192869;28;20487;-73
2022/03/02 08:19:26;;;;;;;18.57;11.00;;;;;;;4.47;52.41;102265.66;5193193;28;20294;-73
2022/03/02 08:22:03;;;;;;;20.57;11.97;;;;;;;4.65;52.86;102276.63;5193168;28;20057;-74
2022/03/02 08:24:41;;;;;;;18.33;11.18;;;;;;;4.79;52.19;102263.34;5193298;28;20433;-73
2022/03/02 08:27:13;;;;;;;22.40;12.85;;;;;;;4.92;51.68;102262.91;5193048;28;20355;-73
2022/03/02 08:29:53;;;;;;;14.65;11.73;;;;;;;5.12;51.17;102263.63;5193227;28;20117;-74
2022/03/02 08:32:25;;;;;;;15.80;10.95;;;;;;;5.35;51.67;102263.50;5192287;28;20038;-74
2022/03/02 08:34:57;;;;;;;18.13;11.77;;;;;;;5.48;49.36;102268.22;5193543;28;20441;-74
2022/03/02 08:37:30;;;;;;;17.00;11.00;;;;;;;5.69;48.56;102261.97;5193050;28;20181;-75
2022/03/02 08:40:03;;;;;;;23.25;12.65;;;;;;;5.85;48.75;102264.19;5193033;28;20749;-75
2022/03/02 08:42:35;;;;;;;20.02;12.48;;;;;;;6.08;47.99;102262.31;5195289;28;20034;-73
2022/03/02 08:45:07;;;;;;;18.13;11.47;;;;;;;6.27;46.81;102257.69;5196530;28;20033;-73
2022/03/02 08:47:38;;;;;;;19.88;11.20;;;;;;;6.41;46.07;102256.38;5196162;28;20374;-73
2022/03/02 08:50:10;;;;;;;25.77;12.20;;;;;;;6.55;45.02;102257.63;5196534;28;20034;-74
2022/03/02 08:52:42;;;;;;;26.00;15.97;;;;;;;6.74;46.16;102252.94;5196327;28;20085;-73
2022/03/02 08:55:13;;;;;;;18.63;11.87;;;;;;;6.97;46.44;102250.97;5196491;28;20049;-73
2022/03/02 08:57:45;;;;;;;19.23;11.43;;;;;;;7.33;44.92;102247.50;5178485;28;20352;-73
2022/03/02 09:00:16;;;;;;;16.53;11.13;;;;;;;7.39;44.84;102252.84;5196272;28;20097;-74
2022/03/02 09:02:52;;;;;;;15.50;11.07;;;;;;;7.86;44.49;102254.78;5196256;28;20145;-74
2022/03/02 09:05:27;;;;;;;18.95;11.80;;;;;;;8.07;43.10;102251.78;5195576;28;20124;-74
2022/03/02 09:07:58;;;;;;;18.15;11.23;;;;;;;8.32;42.45;102245.38;5196769;28;20034;-75
2022/03/02 09:10:30;;;;;;;17.73;11.30;;;;;;;8.54;43.20;102249.28;5197029;28;20061;-74
2022/03/02 09:13:02;;;;;;;19.43;11.20;;;;;;;8.68;41.42;102238.28;5197909;28;20062;-74
2022/03/02 09:15:37;;;;;;;16.77;11.48;;;;;;;9.01;41.90;102248.38;5196535;28;20034;-74
2022/03/02 09:18:08;;;;;;;19.05;10.98;;;;;;;9.31;41.25;102239.34;5195260;28;20014;-74
2022/03/02 09:20:41;;;;;;;15.83;11.67;;;;;;;9.46;39.40;102247.38;5196535;28;20875;-74
2022/03/02 09:23:13;;;;;;;17.05;10.85;;;;;;;9.48;38.83;102242.19;5195826;28;20474;-72
2022/03/02 09:25:47;;;;;;;18.42;11.00;;;;;;;9.77;40.18;102236.53;5196249;28;20046;-74
2022/03/02 09:28:20;;;;;;;17.88;10.13;;;;;;;10.12;37.90;102239.59;5196813;28;20351;-73
2022/03/02 09:30:52;;;;;;;15.85;9.95;;;;;;;10.25;37.92;102237.16;5196170;28;20037;-74
2022/03/02 09:33:25;;;;;;;17.03;10.50;;;;;;;10.47;38.40;102236.56;5195769;28;20536;-75
2022/03/02 09:35:58;;;;;;;;;;;;;;;11.31;40.12;102233.84;5197033;28;20082;-76
2022/03/02 09:38:32;;;;;;;16.90;11.07;;;;;;;11.06;38.26;102224.09;5202643;28;19914;-75
2022/03/02 09:41:08;;;;;;;15.13;10.43;;;;;;;10.90;36.09;102228.28;5201973;28;20022;-75
2022/03/02 09:43:46;;;;;;;16.05;9.93;;;;;;;11.10;36.05;102228.47;5201504;28;20093;-75
2022/03/02 09:46:32;;;;;;;15.00;9.80;;;;;;;11.60;35.74;102222.72;5201776;28;20054;-75
2022/03/02 09:49:08;;;;;;;16.40;10.02;;;;;;;11.37;34.83;102220.00;5201016;28;20034;-75
2022/03/02 09:51:42;;;;;;;14.10;10.27;;;;;;;11.49;34.13;102222.69;5201392;28;20470;-75
2022/03/02 09:54:15;;;;;;;17.58;11.05;;;;;;;11.68;32.61;102217.56;5200928;28;20025;-75
2022/03/02 09:56:49;;;;;;;13.27;10.15;;;;;;;11.90;32.53;102213.31;5201089;28;20026;-75
2022/03/02 09:59:24;;;;;;;14.75;10.85;;;;;;;12.10;33.33;102215.19;5201383;28;20101;-75
2022/03/02 10:02:00;;;;;;;14.10;10.00;;;;;;;12.44;31.90;102200.44;5201223;28;20389;-75
2022/03/02 10:04:33;;;;;;;15.15;10.75;;;;;;;12.52;32.00;102200.47;5200950;28;20105;-76
2022/03/02 10:10:17;;;;;;;13.93;9.82;;;;;;;13.08;31.45;102204.88;5138423;29;20039;-76
2022/03/02 10:12:59;;;;;;;19.30;10.50;;;;;;;13.43;30.70;102206.63;5138531;29;20035;-75
2022/03/02 10:15:31;;;;;;;11.50;8.70;;;;;;;13.59;29.36;102209.22;5138388;29;20484;-75
2022/03/02 10:18:05;;;;;;;14.57;9.47;;;;;;;14.31;28.71;102218.53;5138297;29;20151;-75
2022/03/02 10:20:39;;;;;;;15.52;9.38;;;;;;;14.29;27.67;102213.28;5138024;29;20062;-75
2022/03/02 10:23:42;;;;;;;16.23;9.18;;;;;;;14.88;29.48;102216.44;5138127;29;20035;-75
2022/03/02 10:26:16;;;;;;;;;;;;;;;15.51;29.60;102217.63;5138344;29;20051;-75
2022/03/02 10:29:10;;;;;;;11.40;9.27;;;;;;;14.71;28.23;102207.81;5138062;29;20388;-75
2022/03/02 10:31:52;;;;;;;13.98;9.30;;;;;;;14.67;27.73;102208.72;5138117;29;20032;-75
2022/03/02 10:34:26;;;;;;;14.75;9.75;;;;;;;14.74;27.22;102205.16;5137593;29;20135;-75
2022/03/02 10:37:13;;;;;;;13.90;8.68;;;;;;;15.01;26.10;102206.69;5137876;29;20411;-75
2022/03/02 10:40:06;;;;;;;11.65;9.38;;;;;;;15.43;27.90;102203.69;5138110;28;20051;-75
2022/03/02 10:42:42;;;;;;;10.93;8.88;;;;;;;15.64;25.39;102203.44;5139519;29;20035;-73
2022/03/02 10:45:19;;;;;;;13.43;9.50;;;;;;;16.00;25.33;102196.06;5139738;29;20040;-74
2022/03/02 10:48:09;;;;;;;13.70;9.77;;;;;;;16.22;25.86;102191.34;5192011;28;20405;-76
2022/03/02 10:50:42;;;;;;;12.65;9.82;;;;;;;16.72;23.70;102198.53;5201851;28;20109;-75
2022/03/02 10:53:16;;;;;;;13.20;9.15;;;;;;;16.47;24.79;102191.00;5202601;28;20026;-75
2022/03/02 10:55:48;;;;;;;12.30;9.75;;;;;;;16.54;23.93;102197.91;5217641;28;20023;-74
2022/03/02 10:58:20;;;;;;;11.82;9.20;;;;;;;16.39;24.81;102200.78;5213189;28;20023;-76
2022/03/02 11:00:52;;;;;;;14.77;9.00;;;;;;;17.11;22.80;102194.41;5203784;28;20052;-75
2022/03/02 11:03:27;;;;;;;12.05;9.95;;;;;;;17.59;22.68;102195.28;5200165;28;20034;-75
2022/03/02 11:06:01;;;;;;;13.57;8.98;;;;;;;17.13;22.88;102182.06;5182210;28;20485;-75
2022/03/02 11:08:35;;;;;;;13.00;9.73;;;;;;;17.54;23.43;102189.22;5182421;28;20142;-75
2022/03/02 11:11:08;;;;;;;11.20;8.98;;;;;;;17.77;22.89;102176.41;5199580;28;20109;-75
2022/03/02 11:13:40;;;;;;;12.43;9.68;;;;;;;17.98;22.50;102180.44;5199859;28;20030;-76
2022/03/02 11:16:19;;;;;;;12.90;10.20;;;;;;;18.43;23.66;102182.06;5199650;28;20038;-74
2022/03/02 11:18:52;;;;;;;10.73;8.95;;;;;;;18.70;21.28;102175.25;5199398;28;20062;-75
2022/03/02 11:21:32;;;;;;;12.85;9.25;;;;;;;18.77;21.60;102170.66;5199545;28;20045;-75
2022/03/02 11:24:05;;;;;;;13.43;9.52;;;;;;;19.08;21.25;102169.94;5199635;28;20183;-75
2022/03/02 11:26:39;;;;;;;14.95;9.80;;;;;;;19.15;21.19;102174.13;5199560;28;20505;-75
2022/03/02 11:29:15;;;;;;;16.92;10.32;;;;;;;19.29;21.09;102161.41;5199628;28;20041;-76
2022/03/02 11:31:52;;;;;;;14.05;10.00;;;;;;;19.68;21.16;102166.47;5199695;28;20022;-76
2022/03/02 11:34:27;;;;;;;12.68;9.75;;;;;;;19.83;21.48;102159.03;5199340;28;20026;-76
2022/03/02 11:37:04;;;;;;;11.23;9.98;;;;;;;20.56;20.13;102153.22;5199327;28;20027;-76
2022/03/02 11:39:43;;;;;;;12.50;9.98;;;;;;;20.87;19.38;102148.72;5199087;28;20505;-75
2022/03/02 11:42:17;;;;;;;13.63;9.75;;;;;;;21.30;19.56;102152.50;5199756;28;20046;-76
2022/03/02 11:44:49;;;;;;;18.83;9.30;;;;;;;21.39;19.55;102140.69;5182304;28;20054;-75
2022/03/02 11:47:23;;;;;;;12.60;9.40;;;;;;;20.70;18.68;102134.22;5199439;28;20045;-75